createdAt,value
2023-03-29T03:48:47.445Z,-0.13
2023-03-29T03:51:54.176Z,-0.13
2023-03-29T03:54:56.856Z,-0.62
2023-03-29T03:58:01.971Z,-0.58
2023-03-29T04:01:05.738Z,-0.60
2023-03-29T04:04:10.908Z,-0.59
2023-03-29T04:07:14.360Z,-0.51
2023-03-29T04:10:17.289Z,-0.56
2023-03-29T04:13:21.683Z,-0.54
2023-03-29T04:16:34.024Z,-0.54
2023-03-29T04:19:37.562Z,-0.49
2023-03-29T04:22:41.171Z,-0.50
2023-03-29T04:25:43.901Z,-0.45
2023-03-29T04:28:47.616Z,-0.41
2023-03-29T04:31:50.379Z,-0.35
2023-03-29T04:34:53.597Z,-0.26
2023-03-29T04:37:56.231Z,-0.20
2023-03-29T04:41:01.140Z,-0.17
2023-03-29T04:44:04.581Z,-0.20
2023-03-29T04:47:07.302Z,-0.16
2023-03-29T04:50:12.927Z,-0.10
2023-03-29T04:53:17.076Z,0.03
2023-03-29T04:56:19.636Z,0.23
2023-03-29T04:59:23.651Z,0.40
2023-03-29T05:02:27.279Z,0.63
2023-03-29T05:05:31.360Z,0.76
2023-03-29T05:08:39.923Z,0.90
2023-03-29T05:11:43.842Z,1.04
2023-03-29T05:14:47.123Z,1.17
2023-03-29T05:17:49.816Z,1.27
2023-03-29T05:20:54.007Z,1.49
2023-03-29T05:23:57.044Z,1.54
2023-03-29T05:27:02.301Z,1.55
2023-03-29T05:30:06.074Z,1.61
2023-03-29T05:33:09.703Z,1.63
2023-03-29T05:36:14.725Z,1.66
2023-03-29T05:39:18.632Z,1.73
2023-03-29T05:42:22.546Z,1.81
2023-03-29T05:45:28.575Z,1.90
2023-03-29T05:48:32.519Z,2.02
2023-03-29T05:51:36.333Z,2.21
2023-03-29T05:54:40.075Z,2.16
2023-03-29T05:57:44.372Z,2.13
2023-03-29T06:00:50.236Z,2.19
2023-03-29T06:03:56.267Z,2.28
2023-03-29T06:07:01.264Z,2.29
2023-03-29T06:10:05.684Z,2.56
2023-03-29T06:13:09.091Z,2.70
2023-03-29T06:16:13.316Z,2.76
2023-03-29T06:19:16.016Z,2.87
2023-03-29T06:22:19.201Z,2.82
2023-03-29T06:25:22.598Z,2.84
2023-03-29T06:28:26.063Z,2.76
2023-03-29T06:31:30.034Z,2.79
2023-03-29T06:34:36.108Z,2.90
2023-03-29T06:37:49.344Z,3.01
2023-03-29T06:40:59.734Z,3.25
2023-03-29T06:44:04.293Z,3.44
2023-03-29T06:47:07.338Z,3.80
2023-03-29T06:50:11.528Z,4.07
2023-03-29T06:53:15.707Z,4.18
2023-03-29T06:56:18.440Z,4.66
2023-03-29T06:59:21.475Z,5.15
2023-03-29T07:02:25.578Z,5.45
2023-03-29T07:05:29.236Z,5.22
2023-03-29T07:08:32.382Z,5.12
2023-03-29T07:11:35.807Z,4.95
2023-03-29T07:14:39.788Z,4.83
2023-03-29T07:17:42.815Z,4.92
2023-03-29T07:20:45.415Z,5.23
2023-03-29T07:23:48.273Z,5.53
2023-03-29T07:27:03.385Z,5.70
2023-03-29T07:30:11.211Z,6.07
2023-03-29T07:33:14.524Z,6.44
2023-03-29T07:36:18.559Z,6.74
2023-03-29T07:39:22.369Z,7.45
2023-03-29T07:42:28.115Z,8.03
2023-03-29T07:45:31.236Z,8.59
2023-03-29T07:48:36.860Z,9.96
2023-03-29T07:51:40.209Z,10.47
2023-03-29T07:54:43.284Z,9.62
2023-03-29T07:57:46.598Z,8.66
2023-03-29T08:00:49.297Z,8.24
2023-03-29T08:03:53.673Z,7.82
2023-03-29T08:07:33.630Z,7.85
2023-03-29T08:10:39.394Z,7.79
2023-03-29T08:13:43.035Z,7.28
2023-03-29T08:16:47.772Z,7.19
2023-03-29T08:19:51.536Z,7.21
2023-03-29T08:22:55.638Z,6.94
2023-03-29T08:25:58.621Z,6.78
2023-03-29T08:29:01.821Z,7.12
2023-03-29T08:32:05.620Z,7.58
2023-03-29T08:35:09.718Z,7.95
2023-03-29T08:38:12.641Z,8.06
2023-03-29T08:41:33.143Z,8.45
2023-03-29T08:44:51.750Z,8.70
2023-03-29T08:48:16.944Z,9.04
2023-03-29T08:51:35.042Z,10.31
2023-03-29T08:54:45.749Z,11.00
2023-03-29T08:57:58.411Z,11.20
2023-03-29T09:01:05.946Z,13.19
2023-03-29T09:04:17.224Z,16.03
2023-03-29T09:07:20.528Z,18.61
2023-03-29T09:10:39.528Z,18.58
2023-03-29T09:14:20.242Z,15.25
2023-03-29T09:17:42.568Z,12.91
2023-03-29T09:21:04.198Z,12.55
2023-03-29T09:24:29.599Z,12.37
2023-03-29T09:27:36.863Z,12.19
2023-03-29T09:30:58.528Z,11.70
2023-03-29T09:34:10.393Z,11.48
2023-03-29T09:37:25.803Z,10.71
2023-03-29T09:40:39.414Z,10.79
2023-03-29T09:43:44.296Z,10.69
2023-03-29T09:46:58.354Z,10.48
2023-03-29T09:50:31.547Z,10.67
2023-03-29T09:53:36.103Z,10.48
2023-03-29T09:56:42.919Z,10.28
2023-03-29T09:59:48.481Z,10.10
2023-03-29T10:02:57.163Z,10.41
2023-03-29T10:06:02.834Z,10.15
2023-03-29T10:09:20.825Z,10.30
2023-03-29T10:12:24.839Z,10.75
2023-03-29T10:15:30.421Z,11.04
2023-03-29T10:18:40.019Z,10.95
2023-03-29T10:21:42.413Z,10.95
2023-03-29T10:24:52.048Z,10.73
2023-03-29T10:28:17.683Z,10.58
2023-03-29T10:31:22.819Z,10.05
2023-03-29T10:34:28.085Z,9.72
2023-03-29T10:37:31.597Z,9.74
2023-03-29T10:40:35.638Z,9.91
2023-03-29T10:43:44.429Z,9.63
2023-03-29T10:46:47.085Z,9.71
2023-03-29T10:49:58.875Z,9.90
2023-03-29T10:53:03.098Z,9.93
2023-03-29T10:56:11.878Z,9.94
2023-03-29T10:59:23.088Z,10.03
2023-03-29T11:02:35.543Z,10.03
2023-03-29T11:05:53.290Z,9.89
2023-03-29T11:09:14.144Z,9.79
2023-03-29T11:12:36.690Z,10.03
2023-03-29T11:16:06.548Z,10.18
2023-03-29T11:19:20.750Z,10.17
2023-03-29T11:22:41.462Z,10.29
2023-03-29T11:26:10.130Z,10.24
2023-03-29T11:29:22.963Z,9.69
2023-03-29T11:32:34.313Z,9.62
2023-03-29T11:35:58.654Z,9.78
2023-03-29T11:39:42.291Z,10.17
2023-03-29T11:42:49.957Z,10.36
2023-03-29T11:46:18.126Z,10.14
2023-03-29T11:49:37.362Z,10.15
2023-03-29T11:52:54.185Z,10.22
2023-03-29T11:56:08.758Z,10.71
2023-03-29T11:59:41.634Z,10.54
2023-03-29T12:03:07.028Z,10.65
2023-03-29T12:06:57.068Z,11.08
2023-03-29T12:10:08.614Z,10.97
2023-03-29T12:13:14.282Z,11.18
2023-03-29T12:16:24.735Z,11.13
2023-03-29T12:19:50.405Z,11.25
2023-03-29T12:22:54.604Z,11.28
2023-03-29T12:26:19.883Z,11.51
2023-03-29T12:29:43.887Z,11.40
2023-03-29T12:33:21.594Z,11.19
2023-03-29T12:36:49.154Z,10.70
2023-03-29T12:39:53.869Z,10.84
2023-03-29T12:43:08.897Z,10.89
2023-03-29T12:46:26.566Z,10.85
2023-03-29T12:49:40.813Z,10.50
2023-03-29T12:52:44.326Z,10.62
2023-03-29T12:55:49.800Z,10.83
2023-03-29T12:59:36.115Z,10.97
2023-03-29T13:02:39.461Z,11.08
2023-03-29T13:05:44.440Z,10.89
2023-03-29T13:08:57.337Z,10.84
2023-03-29T13:12:18.622Z,10.75
2023-03-29T13:15:26.895Z,10.51
2023-03-29T13:18:48.392Z,10.64
2023-03-29T13:22:02.988Z,11.02
2023-03-29T13:25:32.646Z,11.21
2023-03-29T13:28:43.128Z,11.11
2023-03-29T13:31:58.340Z,10.88
2023-03-29T13:35:18.900Z,11.08
2023-03-29T13:38:27.699Z,11.07
2023-03-29T13:41:39.419Z,11.11
2023-03-29T13:44:44.890Z,10.88
2023-03-29T13:48:02.360Z,10.93
2023-03-29T13:51:13.644Z,11.36
2023-03-29T13:54:24.823Z,11.34
2023-03-29T13:57:33.007Z,11.42
2023-03-29T14:01:02.485Z,11.78
2023-03-29T14:04:08.281Z,11.89
2023-03-29T14:07:14.620Z,11.78
2023-03-29T14:10:27.415Z,11.68
2023-03-29T14:13:31.175Z,11.41
2023-03-29T14:16:37.345Z,11.36
2023-03-29T14:19:40.122Z,11.48
2023-03-29T14:22:44.222Z,11.46
2023-03-29T14:25:47.172Z,11.36
2023-03-29T14:28:52.884Z,11.32
2023-03-29T14:31:55.380Z,11.22
2023-03-29T14:34:58.701Z,11.31
2023-03-29T14:38:01.883Z,11.28
2023-03-29T14:41:05.116Z,11.33
2023-03-29T14:44:08.319Z,11.45
2023-03-29T14:47:25.495Z,11.44
2023-03-29T14:50:30.878Z,11.40
2023-03-29T14:53:37.048Z,11.14
2023-03-29T14:56:39.546Z,11.03
2023-03-29T14:59:42.848Z,11.01
2023-03-29T15:03:04.482Z,10.93
2023-03-29T15:06:07.502Z,10.92
2023-03-29T15:09:17.784Z,11.01
2023-03-29T15:12:20.769Z,10.80
2023-03-29T15:15:25.708Z,10.77
2023-03-29T15:18:41.410Z,10.82
2023-03-29T15:21:45.278Z,10.91
2023-03-29T15:24:48.776Z,11.01
2023-03-29T15:27:55.931Z,10.92
2023-03-29T15:31:07.711Z,10.95
2023-03-29T15:34:12.423Z,10.97
2023-03-29T15:37:15.025Z,10.60
2023-03-29T15:40:22.351Z,10.45
2023-03-29T15:43:26.208Z,10.57
2023-03-29T15:46:28.757Z,10.49
2023-03-29T15:49:31.415Z,10.44
2023-03-29T15:52:33.720Z,10.55
2023-03-29T15:55:41.168Z,10.45
2023-03-29T15:58:44.225Z,10.43
2023-03-29T16:01:47.527Z,10.40
2023-03-29T16:04:50.708Z,10.34
2023-03-29T16:07:53.286Z,10.17
2023-03-29T16:10:56.155Z,10.16
2023-03-29T16:13:59.424Z,10.03
2023-03-29T16:17:06.157Z,9.97
2023-03-29T16:20:10.142Z,9.96
2023-03-29T16:23:13.112Z,10.02
2023-03-29T16:26:17.014Z,10.11
2023-03-29T16:29:20.460Z,10.09
2023-03-29T16:32:22.867Z,10.01
2023-03-29T16:35:28.963Z,9.99
2023-03-29T16:38:31.472Z,9.85
2023-03-29T16:41:34.120Z,9.83
2023-03-29T16:44:36.600Z,9.81
2023-03-29T16:47:39.548Z,9.71
2023-03-29T16:50:42.154Z,9.64
2023-03-29T16:53:44.928Z,9.53
2023-03-29T16:56:47.407Z,9.42
2023-03-29T16:59:50.552Z,9.36
2023-03-29T17:02:52.937Z,9.38
2023-03-29T17:05:57.972Z,9.40
2023-03-29T17:09:00.705Z,9.32
2023-03-29T17:12:03.635Z,9.24
2023-03-29T17:15:07.802Z,9.28
